Terminal Aerodrome Forecast
Issued by NWS

Home | Current Version | Previous Version | Text Only | Print | Product List | Glossary On
Versions: 1 2 3 4 5 6 7 8 9 10 11 12 13 14 15
000
FTUS45 KPSR 280520
TAFIWA
TAF
KIWA 280520Z 2806/2906 14010KT P6SM FEW100 SCT140 BKN200
     FM282100 24008KT P6SM SCT100 BKN250
     FM290200 14010G20KT P6SM FEW080 BKN100 BKN250
      AMD LTD TO CLD VIS AND WIND TIL 281300=

USA.gov is the U.S. government's official web portal to all federal, state and local government web resources and services.